createdAt,value
2022-09-30T00:01:40.420Z,99108.94
2022-09-30T00:04:13.397Z,99132.00
2022-09-30T00:06:40.989Z,99114.47
2022-09-30T00:09:08.511Z,99133.06
2022-09-30T00:11:36.542Z,99128.00
2022-09-30T00:14:04.014Z,99114.41
2022-09-30T00:16:34.466Z,99122.72
2022-09-30T00:19:03.383Z,99118.72
2022-09-30T00:21:30.739Z,99126.66
2022-09-30T00:23:58.164Z,99120.81
2022-09-30T00:26:25.850Z,99133.81
2022-09-30T00:28:56.295Z,99133.81
2022-09-30T00:31:26.813Z,99139.38
2022-09-30T00:34:09.500Z,99125.56
2022-09-30T00:36:58.005Z,99135.16
2022-09-30T00:39:27.693Z,99144.47
2022-09-30T00:42:00.911Z,99140.19
2022-09-30T00:44:51.181Z,99152.38
2022-09-30T00:47:45.759Z,99157.47
2022-09-30T00:50:34.510Z,99137.81
2022-09-30T00:53:25.553Z,99151.06
2022-09-30T00:56:07.485Z,99151.09
2022-09-30T00:58:41.436Z,99142.06
2022-09-30T01:01:10.289Z,99150.56
2022-09-30T01:03:50.324Z,99157.94
2022-09-30T01:06:19.812Z,99157.13
2022-09-30T01:08:47.368Z,99160.03
2022-09-30T01:11:15.235Z,99141.16
2022-09-30T01:13:45.918Z,99167.94
2022-09-30T01:16:43.015Z,99161.09
2022-09-30T01:19:35.143Z,99165.34
2022-09-30T01:22:11.455Z,99165.56
2022-09-30T01:24:38.756Z,99164.25
2022-09-30T01:27:09.187Z,99167.13
2022-09-30T01:29:57.846Z,99167.75
2022-09-30T01:32:31.899Z,99182.81
2022-09-30T01:35:12.616Z,99159.47
2022-09-30T01:38:05.005Z,99159.81
2022-09-30T01:41:05.429Z,99173.81
2022-09-30T01:43:48.378Z,99174.34
2022-09-30T01:46:47.468Z,99176.69
2022-09-30T01:49:27.620Z,99176.94
2022-09-30T01:52:15.823Z,99185.75
2022-09-30T01:55:24.745Z,99196.31
2022-09-30T01:57:58.551Z,99206.91
2022-09-30T02:00:26.645Z,99196.81
2022-09-30T02:03:02.299Z,99197.28
2022-09-30T02:05:40.076Z,99196.03
2022-09-30T02:08:25.590Z,99195.25
2022-09-30T02:11:00.286Z,99198.69
2022-09-30T02:13:45.991Z,99206.59
2022-09-30T02:16:40.246Z,99215.84
2022-09-30T02:19:30.999Z,99210.03
2022-09-30T02:22:07.631Z,99197.59
2022-09-30T02:24:39.621Z,99202.66
2022-09-30T02:27:14.582Z,99194.88
2022-09-30T02:29:50.434Z,99211.50
2022-09-30T02:32:34.442Z,99207.22
2022-09-30T02:35:34.204Z,99209.28
2022-09-30T02:38:24.898Z,99209.88
2022-09-30T02:41:18.423Z,99217.56
2022-09-30T02:43:46.239Z,99227.97
2022-09-30T02:46:32.619Z,99225.28
2022-09-30T02:49:06.058Z,99216.81
2022-09-30T02:52:16.364Z,99213.59
2022-09-30T02:55:03.922Z,99227.16
2022-09-30T02:58:05.717Z,99229.25
2022-09-30T03:00:33.338Z,99229.00
2022-09-30T03:03:07.881Z,99224.47
2022-09-30T03:05:35.623Z,99230.31
2022-09-30T03:08:03.231Z,99238.34
2022-09-30T03:10:31.544Z,99233.78
2022-09-30T03:13:13.673Z,99239.94
2022-09-30T03:15:53.299Z,99257.38
2022-09-30T03:19:12.306Z,99244.28
2022-09-30T03:22:19.473Z,99257.25
2022-09-30T03:24:56.029Z,99257.44
2022-09-30T03:27:36.329Z,99272.09
2022-09-30T03:30:14.194Z,99257.31
2022-09-30T03:33:14.593Z,99275.38
2022-09-30T03:36:09.166Z,99260.56
2022-09-30T03:38:45.270Z,99262.59
2022-09-30T03:41:33.311Z,99278.81
2022-09-30T03:44:17.163Z,99288.78
2022-09-30T03:46:53.348Z,99282.25
2022-09-30T03:49:25.814Z,99273.88
2022-09-30T03:51:53.972Z,99292.22
2022-09-30T03:54:23.142Z,99285.69
2022-09-30T03:56:50.960Z,99290.19
2022-09-30T03:59:26.148Z,99291.28
2022-09-30T04:01:54.043Z,99279.09
2022-09-30T04:04:21.799Z,99311.00
2022-09-30T04:06:49.412Z,99292.78
2022-09-30T04:09:16.980Z,99295.31
2022-09-30T04:11:44.401Z,99299.06
2022-09-30T04:14:11.867Z,99293.75
2022-09-30T04:16:39.431Z,99285.56
2022-09-30T04:19:06.842Z,99307.00
2022-09-30T04:21:34.431Z,99288.75
2022-09-30T04:24:02.029Z,99299.63
2022-09-30T04:26:29.628Z,99307.34
2022-09-30T04:28:58.899Z,99302.81
2022-09-30T04:31:26.584Z,99300.09
2022-09-30T04:33:54.213Z,99304.47
2022-09-30T04:36:21.585Z,99321.28
2022-09-30T04:38:49.087Z,99301.16
2022-09-30T04:41:17.536Z,99313.31
2022-09-30T04:43:47.140Z,99326.81
2022-09-30T04:46:16.195Z,99321.66
2022-09-30T04:48:46.492Z,99330.03
2022-09-30T04:51:19.887Z,99314.28
2022-09-30T04:53:49.614Z,99328.84
2022-09-30T04:56:17.455Z,99345.59
2022-09-30T04:58:45.181Z,99323.75
2022-09-30T05:01:15.489Z,99325.25
2022-09-30T05:03:43.713Z,99332.50
2022-09-30T05:06:12.225Z,99325.31
2022-09-30T05:08:43.206Z,99319.59
2022-09-30T05:11:18.896Z,99334.81
2022-09-30T05:13:47.512Z,99327.25
2022-09-30T05:16:15.837Z,99329.56
2022-09-30T05:18:46.421Z,99326.66
2022-09-30T05:21:20.910Z,99343.63
2022-09-30T05:23:48.558Z,99338.97
2022-09-30T05:26:16.276Z,99372.19
2022-09-30T05:28:43.797Z,99334.16
2022-09-30T05:31:12.460Z,99358.97
2022-09-30T05:33:40.753Z,99336.75
2022-09-30T05:36:10.176Z,99360.97
2022-09-30T05:38:37.684Z,99356.94
2022-09-30T05:41:13.909Z,99379.88
2022-09-30T05:43:44.130Z,99330.94
2022-09-30T05:46:11.688Z,99363.41
2022-09-30T05:48:39.449Z,99339.47
2022-09-30T05:51:07.788Z,99342.59
2022-09-30T05:53:40.031Z,99363.19
2022-09-30T05:56:08.473Z,99355.47
2022-09-30T05:58:37.067Z,99364.91
2022-09-30T06:01:12.787Z,99378.69
2022-09-30T06:03:41.716Z,99348.81
2022-09-30T06:06:09.570Z,99365.56
2022-09-30T06:08:37.053Z,99349.25
2022-09-30T06:11:12.205Z,99372.75
2022-09-30T06:13:41.280Z,99369.47
2022-09-30T06:16:10.123Z,99358.66
2022-09-30T06:18:41.582Z,99366.59
2022-09-30T06:21:12.439Z,99359.31
2022-09-30T06:23:40.497Z,99358.97
2022-09-30T06:26:10.098Z,99343.44
2022-09-30T06:28:38.407Z,99372.78
2022-09-30T06:31:06.986Z,99358.50
2022-09-30T06:33:35.051Z,99372.50
2022-09-30T06:36:06.362Z,99352.97
2022-09-30T06:38:37.433Z,99358.69
2022-09-30T06:41:06.141Z,99357.72
2022-09-30T06:43:45.795Z,99359.44
2022-09-30T06:46:30.378Z,99348.47
2022-09-30T06:49:14.600Z,99351.75
2022-09-30T06:51:42.553Z,99376.06
2022-09-30T06:54:10.894Z,99369.91
2022-09-30T06:56:38.430Z,99377.53
2022-09-30T06:59:05.942Z,99350.13
2022-09-30T07:01:33.312Z,99358.34
2022-09-30T07:04:03.502Z,99354.53
2022-09-30T07:06:31.497Z,99353.91
2022-09-30T07:08:58.982Z,99371.81
2022-09-30T07:11:26.631Z,99371.19
2022-09-30T07:13:54.019Z,99358.16
2022-09-30T07:16:22.620Z,99381.63
2022-09-30T07:18:50.067Z,99369.91
2022-09-30T07:21:17.613Z,99394.16
2022-09-30T07:23:48.529Z,99365.28
2022-09-30T07:26:20.447Z,99378.75
2022-09-30T07:28:48.633Z,99362.47
2022-09-30T07:31:33.110Z,99361.03
2022-09-30T07:34:02.311Z,99353.59
2022-09-30T07:36:33.755Z,99354.56
2022-09-30T07:39:07.673Z,99361.69
2022-09-30T07:41:39.232Z,99363.09
2022-09-30T07:44:10.538Z,99361.19
2022-09-30T07:46:40.732Z,99363.41
2022-09-30T07:49:12.990Z,99379.91
2022-09-30T07:51:45.312Z,99375.16
2022-09-30T07:54:18.832Z,99396.03
2022-09-30T07:59:38.246Z,99411.97
2022-09-30T08:02:07.322Z,99360.34
2022-09-30T08:04:37.213Z,99356.69
2022-09-30T08:07:06.706Z,99353.56
2022-09-30T08:09:35.351Z,99394.56
2022-09-30T08:12:04.629Z,99390.09
2022-09-30T08:14:32.515Z,99358.53
2022-09-30T08:17:00.975Z,99367.88
2022-09-30T08:19:30.382Z,99380.81
2022-09-30T08:21:58.720Z,99364.34
2022-09-30T08:24:27.271Z,99357.56
2022-09-30T08:26:55.823Z,99396.91
2022-09-30T08:32:11.050Z,99366.66
2022-09-30T08:34:38.577Z,99393.38
2022-09-30T08:37:09.330Z,99405.03
2022-09-30T08:39:38.933Z,99405.34
2022-09-30T08:42:25.442Z,99375.53
2022-09-30T08:45:07.488Z,99367.56
2022-09-30T08:48:00.719Z,99382.47
2022-09-30T08:50:43.444Z,99377.38
2022-09-30T08:53:17.898Z,99436.38
2022-09-30T08:55:46.594Z,99390.72
2022-09-30T08:58:29.790Z,99398.41
2022-09-30T09:01:32.984Z,99422.81
2022-09-30T09:04:03.461Z,99391.81
2022-09-30T09:06:43.068Z,99386.13
2022-09-30T09:10:05.051Z,99389.31
2022-09-30T09:12:46.054Z,99405.88
2022-09-30T09:15:28.628Z,99395.75
2022-09-30T09:18:29.844Z,99396.84
2022-09-30T09:21:00.315Z,99390.13
2022-09-30T09:23:31.284Z,99450.69
2022-09-30T09:26:00.367Z,99386.50
2022-09-30T09:28:42.713Z,99390.81
2022-09-30T09:31:17.467Z,99369.03
2022-09-30T09:33:45.564Z,99375.75
2022-09-30T09:36:31.146Z,99392.31
2022-09-30T09:39:13.507Z,99392.94
2022-09-30T09:42:02.107Z,99400.00
2022-09-30T09:45:24.687Z,99398.00
2022-09-30T09:47:57.378Z,99404.50
2022-09-30T09:50:40.119Z,99399.19
2022-09-30T09:53:19.761Z,99393.44
2022-09-30T09:55:50.339Z,99381.38
2022-09-30T09:58:17.899Z,99394.47
2022-09-30T10:00:48.196Z,99396.28
2022-09-30T10:03:23.573Z,99396.31
2022-09-30T10:06:13.386Z,99408.09
2022-09-30T10:08:54.857Z,99388.50
2022-09-30T10:11:25.390Z,99392.13
2022-09-30T10:13:59.859Z,99388.97
2022-09-30T10:16:27.606Z,99401.91
2022-09-30T10:18:55.494Z,99405.78
2022-09-30T10:21:25.497Z,99420.44
2022-09-30T10:23:53.570Z,99399.78
2022-09-30T10:26:24.467Z,99396.97
2022-09-30T10:28:55.269Z,99399.13
2022-09-30T10:31:27.758Z,99412.06
2022-09-30T10:34:21.322Z,99425.84
2022-09-30T10:36:50.136Z,99411.88
2022-09-30T10:39:25.215Z,99404.75
2022-09-30T10:42:13.421Z,99388.16
2022-09-30T10:45:02.565Z,99431.88
2022-09-30T10:47:36.375Z,99409.19
2022-09-30T10:50:07.452Z,99428.75
2022-09-30T10:52:44.913Z,99405.63
2022-09-30T10:55:34.118Z,99390.19
2022-09-30T10:58:38.614Z,99398.09
2022-09-30T11:01:06.105Z,99402.56
2022-09-30T11:03:59.824Z,99409.09
2022-09-30T11:06:31.629Z,99401.91
2022-09-30T11:09:09.688Z,99418.22
2022-09-30T11:11:50.621Z,99410.03
2022-09-30T11:14:28.201Z,99420.19
2022-09-30T11:17:22.530Z,99419.41
2022-09-30T11:20:16.887Z,99408.72
2022-09-30T11:22:44.805Z,99406.75
2022-09-30T11:25:21.660Z,99402.56
2022-09-30T11:28:04.302Z,99436.78
2022-09-30T11:31:10.689Z,99419.88
2022-09-30T11:33:52.140Z,99421.00
2022-09-30T11:36:48.297Z,99424.38
2022-09-30T11:39:27.902Z,99413.63
2022-09-30T11:42:14.674Z,99420.69
2022-09-30T11:44:45.587Z,99418.78
2022-09-30T11:47:45.940Z,99412.63
2022-09-30T11:50:39.400Z,99402.69
2022-09-30T11:53:16.304Z,99408.19
2022-09-30T11:56:21.497Z,99414.13
2022-09-30T11:58:54.390Z,99404.28
2022-09-30T12:01:53.031Z,99415.09
2022-09-30T12:04:36.465Z,99405.56
2022-09-30T12:07:32.534Z,99401.19
2022-09-30T12:10:08.122Z,99408.66
2022-09-30T12:12:35.624Z,99421.28
2022-09-30T12:15:06.728Z,99423.06
2022-09-30T12:17:47.494Z,99411.25
2022-09-30T12:20:54.031Z,99400.59
2022-09-30T12:23:31.846Z,99402.47
2022-09-30T12:26:01.385Z,99411.16
2022-09-30T12:28:53.079Z,99405.97
2022-09-30T12:31:26.638Z,99416.41
2022-09-30T12:33:59.667Z,99428.91
2022-09-30T12:36:43.800Z,99418.38
2022-09-30T12:39:26.217Z,99403.41
2022-09-30T12:42:19.014Z,99422.44
2022-09-30T12:45:16.808Z,99414.56
2022-09-30T12:47:57.433Z,99406.13
2022-09-30T12:50:30.445Z,99402.72
2022-09-30T12:53:00.254Z,99412.16
2022-09-30T12:55:31.433Z,99414.63
2022-09-30T12:58:03.663Z,99413.03
2022-09-30T13:00:38.025Z,99409.94
2022-09-30T13:03:16.049Z,99412.09
2022-09-30T13:05:44.100Z,99416.75
2022-09-30T13:08:25.119Z,99410.91
2022-09-30T13:11:04.968Z,99408.59
2022-09-30T13:13:37.315Z,99412.09
2022-09-30T13:16:06.990Z,99394.88
2022-09-30T13:18:34.492Z,99412.25
2022-09-30T13:21:05.337Z,99413.03
2022-09-30T13:23:37.580Z,99410.50
2022-09-30T13:26:28.074Z,99407.88
2022-09-30T13:29:19.251Z,99429.91
2022-09-30T13:31:49.638Z,99416.81
2022-09-30T13:34:53.982Z,99427.75
2022-09-30T13:37:33.422Z,99424.09
2022-09-30T13:40:05.194Z,99414.91
2022-09-30T13:42:41.836Z,99412.25
2022-09-30T13:45:13.850Z,99425.41
2022-09-30T13:47:46.505Z,99423.81
2022-09-30T13:50:25.970Z,99415.56
2022-09-30T13:52:59.195Z,99430.31
2022-09-30T13:55:34.161Z,99421.44
2022-09-30T13:58:20.274Z,99431.56
2022-09-30T14:00:51.621Z,99417.13
2022-09-30T14:03:38.939Z,99426.91
2022-09-30T14:06:16.606Z,99431.78
2022-09-30T14:08:59.219Z,99430.50
2022-09-30T14:11:42.716Z,99431.69
2022-09-30T14:14:12.986Z,99436.69
2022-09-30T14:16:47.662Z,99424.88
2022-09-30T14:19:31.390Z,99450.84
2022-09-30T14:22:04.941Z,99429.00
2022-09-30T14:24:38.194Z,99432.47
2022-09-30T14:27:30.027Z,99429.78
2022-09-30T14:30:06.520Z,99438.63
2022-09-30T14:32:48.052Z,99437.88
2022-09-30T14:35:22.812Z,99438.44
2022-09-30T14:37:57.407Z,99429.91
2022-09-30T14:40:28.781Z,99428.34
2022-09-30T14:43:03.382Z,99430.69
2022-09-30T14:45:39.772Z,99445.97
2022-09-30T14:48:14.895Z,99440.75
2022-09-30T14:50:52.555Z,99428.34
2022-09-30T14:53:41.250Z,99439.22
2022-09-30T14:56:22.312Z,99432.19
2022-09-30T14:58:53.898Z,99426.44
2022-09-30T15:01:23.624Z,99431.22
2022-09-30T15:03:59.766Z,99452.59
2022-09-30T15:06:33.825Z,99420.69
2022-09-30T15:09:16.375Z,99437.78
2022-09-30T15:11:44.877Z,99425.75
2022-09-30T15:14:23.982Z,99428.09
2022-09-30T15:16:54.802Z,99441.13
2022-09-30T15:19:26.462Z,99435.94
2022-09-30T15:21:56.374Z,99426.09
2022-09-30T15:24:27.720Z,99422.84
2022-09-30T15:26:55.831Z,99430.72
2022-09-30T15:29:23.733Z,99426.16
2022-09-30T15:32:04.822Z,99446.16
2022-09-30T15:34:32.722Z,99439.41
2022-09-30T15:37:10.861Z,99443.53
2022-09-30T15:40:05.636Z,99433.59
2022-09-30T15:42:36.220Z,99421.81
2022-09-30T15:45:24.904Z,99432.41
2022-09-30T15:48:07.065Z,99440.44
2022-09-30T15:50:45.959Z,99446.34
2022-09-30T15:53:24.351Z,99434.59
2022-09-30T15:56:17.393Z,99422.53
2022-09-30T15:59:15.593Z,99441.72
2022-09-30T16:01:56.464Z,99429.47
2022-09-30T16:04:26.457Z,99442.41
2022-09-30T16:07:10.427Z,99430.56
2022-09-30T16:09:40.993Z,99440.63
2022-09-30T16:12:14.539Z,99427.13
2022-09-30T16:14:45.083Z,99416.00
2022-09-30T16:17:21.906Z,99414.69
2022-09-30T16:20:15.966Z,99420.00
2022-09-30T16:22:43.557Z,99428.53
2022-09-30T16:25:29.008Z,99420.56
2022-09-30T16:28:16.698Z,99426.44
2022-09-30T16:30:51.642Z,99427.88
2022-09-30T16:33:19.310Z,99424.13
2022-09-30T16:35:50.362Z,99420.13
2022-09-30T16:38:18.656Z,99422.00
2022-09-30T16:40:46.168Z,99424.94
2022-09-30T16:43:13.674Z,99427.88
2022-09-30T16:45:41.796Z,99420.16
2022-09-30T16:48:17.075Z,99428.38
2022-09-30T16:50:51.843Z,99425.16
2022-09-30T16:53:19.387Z,99426.56
2022-09-30T16:55:48.515Z,99425.50
2022-09-30T16:58:16.881Z,99421.22
2022-09-30T17:00:45.691Z,99436.22
2022-09-30T17:03:15.354Z,99455.50
2022-09-30T17:08:30.650Z,99430.38
2022-09-30T17:10:59.331Z,99429.38
2022-09-30T17:13:27.058Z,99432.84
2022-09-30T17:15:55.353Z,99413.41
2022-09-30T17:18:23.201Z,99436.03
2022-09-30T17:20:53.341Z,99438.19
2022-09-30T17:23:22.937Z,99431.25
2022-09-30T17:25:51.043Z,99434.94
2022-09-30T17:28:18.656Z,99445.66
2022-09-30T17:30:48.599Z,99440.16
2022-09-30T17:33:16.798Z,99432.69
2022-09-30T17:35:44.372Z,99434.88
2022-09-30T17:38:13.823Z,99431.44
2022-09-30T17:40:59.663Z,99427.72
2022-09-30T17:43:27.215Z,99448.03
2022-09-30T17:46:00.033Z,99434.63
2022-09-30T17:48:27.752Z,99434.69
2022-09-30T17:50:56.015Z,99435.47
2022-09-30T17:53:24.753Z,99448.84
2022-09-30T17:56:11.260Z,99443.09
2022-09-30T17:58:40.211Z,99451.22
2022-09-30T18:01:08.531Z,99415.22
2022-09-30T18:03:37.369Z,99440.81
2022-09-30T18:06:05.202Z,99447.53
2022-09-30T18:08:33.083Z,99434.97
2022-09-30T18:11:00.944Z,99427.53
2022-09-30T18:13:29.158Z,99437.91
2022-09-30T18:15:59.923Z,99429.34
2022-09-30T18:18:28.655Z,99436.22
2022-09-30T18:20:56.226Z,99431.72
2022-09-30T18:23:23.868Z,99437.28
2022-09-30T18:25:52.315Z,99427.16
2022-09-30T18:28:19.873Z,99428.44
2022-09-30T18:30:47.531Z,99416.53
2022-09-30T18:33:17.571Z,99427.16
2022-09-30T18:35:45.172Z,99420.22
2022-09-30T18:38:15.102Z,99417.31
2022-09-30T18:40:46.384Z,99420.00
2022-09-30T18:43:14.730Z,99418.13
2022-09-30T18:45:46.670Z,99422.38
2022-09-30T18:48:14.812Z,99429.25
2022-09-30T18:50:42.231Z,99435.66
2022-09-30T18:53:13.024Z,99433.53
2022-09-30T18:55:44.066Z,99424.97
2022-09-30T18:58:11.604Z,99423.94
2022-09-30T19:00:39.194Z,99420.75
2022-09-30T19:03:10.489Z,99418.34
2022-09-30T19:05:38.046Z,99433.25
2022-09-30T19:08:05.599Z,99406.31
2022-09-30T19:10:33.295Z,99413.53
2022-09-30T19:13:01.713Z,99420.19
2022-09-30T19:15:29.173Z,99418.88
2022-09-30T19:17:57.070Z,99427.94
2022-09-30T19:20:25.139Z,99432.19
2022-09-30T19:22:52.674Z,99430.88
2022-09-30T19:25:20.255Z,99422.00
2022-09-30T19:27:49.737Z,99428.13
2022-09-30T19:30:17.514Z,99428.94
2022-09-30T19:32:44.960Z,99436.66
2022-09-30T19:35:14.398Z,99423.63
2022-09-30T19:37:56.744Z,99430.59
2022-09-30T19:40:27.612Z,99446.31
2022-09-30T19:42:55.084Z,99431.66
2022-09-30T19:45:26.041Z,99424.41
2022-09-30T19:47:54.431Z,99437.44
2022-09-30T19:50:21.956Z,99440.69
2022-09-30T19:52:56.971Z,99426.75
2022-09-30T19:55:26.379Z,99444.88
2022-09-30T19:57:54.316Z,99426.00
2022-09-30T20:00:22.681Z,99453.97
2022-09-30T20:02:50.914Z,99426.69
2022-09-30T20:05:18.677Z,99452.38
2022-09-30T20:07:46.218Z,99437.94
2022-09-30T20:10:14.461Z,99429.31
2022-09-30T20:12:42.969Z,99435.75
2022-09-30T20:15:29.349Z,99436.03
2022-09-30T20:17:56.793Z,99440.31
2022-09-30T20:20:36.734Z,99432.28
2022-09-30T20:23:04.276Z,99437.94
2022-09-30T20:25:32.504Z,99430.75
2022-09-30T20:28:00.035Z,99432.31
2022-09-30T20:30:30.145Z,99424.88
2022-09-30T20:32:57.834Z,99417.91
2022-09-30T20:35:26.320Z,99428.56
2022-09-30T20:37:54.587Z,99437.16
2022-09-30T20:40:22.327Z,99428.88
2022-09-30T20:42:49.814Z,99423.81
2022-09-30T20:45:18.394Z,99427.56
2022-09-30T20:47:47.286Z,99429.09
2022-09-30T20:50:14.761Z,99423.75
2022-09-30T20:52:42.263Z,99430.22
2022-09-30T20:55:10.414Z,99426.50
2022-09-30T20:57:37.902Z,99424.91
2022-09-30T21:00:05.648Z,99428.97
2022-09-30T21:02:33.490Z,99426.00
2022-09-30T21:05:02.374Z,99411.81
2022-09-30T21:07:31.280Z,99432.31
2022-09-30T21:09:58.719Z,99425.31
2022-09-30T21:12:26.221Z,99436.03
2022-09-30T21:14:53.707Z,99423.78
2022-09-30T21:17:21.503Z,99413.13
2022-09-30T21:19:48.862Z,99418.47
2022-09-30T21:22:17.506Z,99415.25
2022-09-30T21:24:44.923Z,99396.84
2022-09-30T21:27:12.359Z,99407.81
2022-09-30T21:29:40.090Z,99413.91
2022-09-30T21:32:07.602Z,99413.13
2022-09-30T21:34:35.470Z,99416.56
2022-09-30T21:37:03.196Z,99416.41
2022-09-30T21:39:30.637Z,99395.09
2022-09-30T21:41:58.591Z,99414.28
2022-09-30T21:44:26.053Z,99406.84
2022-09-30T21:46:53.497Z,99411.91
2022-09-30T21:49:25.977Z,99420.22
2022-09-30T21:51:53.623Z,99413.09
2022-09-30T21:54:21.242Z,99421.91
2022-09-30T21:56:48.859Z,99408.53
2022-09-30T21:59:16.831Z,99409.13
2022-09-30T22:01:44.261Z,99406.19
2022-09-30T22:04:11.838Z,99416.63
2022-09-30T22:06:39.285Z,99413.69
2022-09-30T22:09:07.310Z,99408.94
2022-09-30T22:11:34.937Z,99406.53
2022-09-30T22:14:02.981Z,99400.38
2022-09-30T22:16:35.250Z,99412.34
2022-09-30T22:19:05.118Z,99412.63
2022-09-30T22:21:35.086Z,99402.53
2022-09-30T22:24:05.698Z,99399.09
2022-09-30T22:26:33.534Z,99402.81
2022-09-30T22:29:07.153Z,99407.59
2022-09-30T22:31:34.891Z,99397.22
2022-09-30T22:34:31.564Z,99407.34
2022-09-30T22:37:17.809Z,99402.81
2022-09-30T22:39:45.297Z,99382.06
2022-09-30T22:42:12.750Z,99388.72
2022-09-30T22:44:40.182Z,99379.91
2022-09-30T22:47:10.049Z,99379.38
2022-09-30T22:49:37.538Z,99387.09
2022-09-30T22:52:05.006Z,99377.97
2022-09-30T22:54:35.479Z,99376.34
2022-09-30T22:57:03.547Z,99379.31
2022-09-30T22:59:31.095Z,99390.81
2022-09-30T23:01:58.691Z,99354.53
2022-09-30T23:04:27.393Z,99386.81
2022-09-30T23:06:58.579Z,99388.63
2022-09-30T23:09:25.971Z,99382.53
2022-09-30T23:11:54.927Z,99390.25
2022-09-30T23:14:23.142Z,99381.19
2022-09-30T23:16:51.108Z,99381.47
2022-09-30T23:19:18.937Z,99385.19
2022-09-30T23:21:46.415Z,99378.25
2022-09-30T23:24:14.687Z,99361.72
2022-09-30T23:26:42.213Z,99371.84
2022-09-30T23:29:12.587Z,99377.44
2022-09-30T23:31:40.418Z,99387.59
2022-09-30T23:34:08.002Z,99378.25
2022-09-30T23:36:37.292Z,99383.84
2022-09-30T23:39:12.819Z,99385.66
2022-09-30T23:41:40.753Z,99384.41
2022-09-30T23:44:10.248Z,99394.75
2022-09-30T23:46:37.776Z,99383.28
2022-09-30T23:49:05.241Z,99397.69
2022-09-30T23:51:33.882Z,99381.88
2022-09-30T23:54:02.576Z,99395.78
2022-09-30T23:56:30.082Z,99393.59
2022-09-30T23:58:57.644Z,99398.66
